• Join FlightAware (Why Join?)
  • Login
  • US Flag 
02:50PM EDT


 

Airport Tracker/Info


-or-


 

Live Flight TrackerFlight Track Log ✈ AWE3202 ✈ 26-Apr-2013 ✈ KDCA - KMHT

Flight Track Log - Related Links

Times and Time Zones

All times are in EDT time to prevent confusion due to time zone crossing. See the AWE3202 flight status page for this flight to view local times or setup timezone preferences in your user account.

Time Position Orientation Groundspeed Altitude Reporting Facility
EDT Latitude Longitude Course Direction KTS MPH feet Rate Location/Type
10:44PM 38.8833 -77.0500 83° East 165 190 1,100  Level Potomac TRACON
10:45PM 38.9167 -77.1000 311° West 201 231 2,900 2,340 Climbing Potomac TRACON
10:46PM 38.9932 -76.6205 67° East  Level FlightAware Approximate
10:46PM 38.9956 -77.1006 360° North 186 214 7,300  Level Washington Center
10:47PM 39.0470 -76.4824 63° Northeast  Level FlightAware Approximate
10:47PM 39.0136 -76.9994 77° East 181 208 10,100  Level Washington Center
10:48PM 39.1041 -76.3460 61° Northeast  Level FlightAware Approximate
10:48PM 39.0314 -76.8903 78° East 239 275 12,500  Level Washington Center
10:49PM 39.1505 -76.2120 83° East  Level FlightAware Approximate
10:49PM 39.0536 -76.7703 77° East 278 320 14,700  Level Washington Center
10:50PM 39.0756 -76.6450 77° East 322 371 17,000 1,920 Climbing Washington Center
10:51PM 39.0975 -76.5169 78° East 348 400 18,700 1,680 Climbing Washington Center
10:52PM 39.1214 -76.3808 77° East 366 421 20,500 1,800 Climbing Washington Center
10:53PM 39.1450 -76.2367 78° East 386 444 22,300 1,260 Climbing Washington Center
10:54PM 39.1686 -76.0789 79° East 420 483 23,000 300 Climbing Washington Center
10:55PM 39.1942 -75.9156 79° East 446 513 23,000  Level Washington Center
10:56PM 39.2611 -75.7928 55° Northeast 430 495 23,000  Level Washington Center
10:57PM 39.3447 -75.6856 45° Northeast 420 483 23,000 60 Level Washington Center
10:58PM 39.4386 -75.5969 36° Northeast 410 472 23,200 840 Climbing Washington Center
10:59PM 39.5364 -75.5161 33° Northeast 410 472 24,700 840 Climbing Washington Center
11:00PM 39.6239 -75.4406 34° Northeast 416 479 25,000 120 Climbing Washington Center
11:01PM 39.7239 -75.3622 31° Northeast 416 479 25,000 420 Level Washington Center
11:03PM 39.8406 -75.2614 34° Northeast 416 479 26,000 1,080 Climbing New York Center
11:04PM 39.9417 -75.1786 32° Northeast 423 487 27,500 1,320 Climbing New York Center
11:05PM 40.0428 -75.0903 34° Northeast 434 499 28,700 720 Climbing New York Center
11:06PM 40.1461 -75.0017 33° Northeast 434 499 29,000 120 Climbing New York Center
11:07PM 40.2556 -74.9131 32° Northeast 444 511 29,000  Level New York Center
11:08PM 40.3722 -74.8519 22° Northeast 444 511 29,000  Level New York Center
11:09PM 40.4928 -74.8044 17° North 444 511 29,000  Level New York Center
11:10PM 40.6131 -74.7542 18° North 449 517 29,000  Level New York Center
11:11PM 40.7339 -74.6983 19° North 449 517 29,000  Level New York Center
11:12PM 40.8542 -74.6475 18° North 449 517 29,000  Level New York Center
11:13PM 40.9706 -74.5964 18° North 444 511 29,000  Level New York Center
11:14PM 41.1558 -74.5189 17° North 436 502 29,000  Level Boston Center
11:15PM 41.2861 -74.4650 17° North 430 495 29,000  Level Boston Center
11:16PM 41.4017 -74.4133 19° North 435 501 29,000  Level Boston Center
11:17PM 41.5044 -74.3639 20° North 430 495 29,000  Level Boston Center
11:18PM 41.6325 -74.3122 17° North 430 495 29,000  Level Boston Center
11:19PM 41.7439 -74.2597 19° North 424 488 29,000  Level Boston Center
11:20PM 41.8489 -74.2156 17° North 429 494 29,000  Level Boston Center
11:21PM 41.9747 -74.1575 19° North 429 494 29,000  Level Boston Center
11:22PM 42.0922 -74.1047 18° North 429 494 29,000  Level Boston Center
11:23PM 42.2075 -74.0544 18° North 429 494 29,000  Level Boston Center
11:24PM 42.2947 -73.9417 44° Northeast 424 488 29,000 -60 Level Boston Center
11:25PM 42.3444 -73.7772 68° East 420 483 28,900 -480 Descending Boston Center
11:26PM 42.3922 -73.6208 67° East 433 498 28,100 -840 Descending Boston Center
11:27PM 42.4417 -73.4642 67° East 445 512 27,300 -840 Descending Boston Center
11:28PM 42.4889 -73.2989 69° East 453 521 26,500 -840 Descending Boston Center
11:29PM 42.5358 -73.1444 68° East 453 521 25,700 -840 Descending Boston Center
11:30PM 42.5825 -72.9900 68° East 447 514 24,900 -1,380 Descending Boston Center
11:31PM 42.6289 -72.8436 67° East 433 498 23,000 -2,220 Descending Boston Center
11:32PM 42.6731 -72.6942 68° East 428 493 20,500 -2,520 Descending Boston Center
11:33PM 42.7150 -72.5617 67° East 404 465 18,000 -2,100 Descending Boston Center
11:34PM 42.7547 -72.4317 67° East 384 442 16,300 -2,220 Descending Boston Center
11:35PM 42.7900 -72.3042 69° East 368 423 13,600 -2,520 Descending Boston Center
11:36PM 42.8003 -72.1883 83° East 355 409 11,300 -1,620 Descending Boston Center
11:37PM 42.8083 -72.0892 84° East 341 392 10,400 -1,140 Descending Boston Center
11:38PM 42.8267 -71.9617 79° East 289 333 9,100 -1,320 Descending Boston Center
11:39PM 42.8492 -71.8539 74° East 269 310 7,800 -1,140 Descending Boston Center
11:40PM 42.8217 -71.7806 117° Southeast 237 273 6,900 -1,320 Descending Boston Center
11:41PM 42.7772 -71.6933 125° Southeast 247 284 5,200 -1,440 Descending Boston Center
11:42PM 42.7933 -71.6167 74° East 216 249 4,100 -1,140 Descending Boston Center